| time (UTC) | temp C | wind direction | speed KPH | gust KPH | rain 1hr cm | rain 24hr cm | rain mn cm | humidity % | barometer mb |
| 20260508030056 | 11 | 0 | 0.0 | 0.0 | 0.00 | 2.29 | 2.18 | 96 | 1014.1 |
| 20260508024601 | 11 | 0 | 0.0 | 0.0 | 0.00 | 2.31 | 2.18 | 96 | 1013.6 |
| 20260508023048 | 11 | 0 | 0.0 | 0.0 | 0.00 | 2.31 | 2.18 | 96 | 1013.5 |
| 20260508021545 | 11 | 0 | 0.0 | 0.0 | 0.00 | 2.31 | 2.18 | 96 | 1013.5 |
| 20260508020049 | 11 | 0 | 0.0 | 0.0 | 0.00 | 2.31 | 2.18 | 96 | 1013.4 |
| 20260508014546 | 11 | 0 | 0.0 | 0.0 | 0.00 | 2.31 | 2.18 | 96 | 1013.0 |
| 20260508013043 | 11 | 0 | 0.0 | 0.0 | 0.00 | 2.31 | 2.18 | 96 | 1012.9 |
| 20260508011559 | 11 | 0 | 0.0 | 0.0 | 0.00 | 2.31 | 2.18 | 96 | 1012.7 |
| 20260508010058 | 11 | 0 | 0.0 | 0.0 | 0.00 | 2.31 | 2.18 | 96 | 1012.8 |
| 20260508004554 | 11 | 0 | 0.0 | 0.0 | 0.00 | 2.31 | 2.18 | 95 | 1012.8 |
| 20260508003042 | 11 | 0 | 0.0 | 1.6 | 0.00 | 2.31 | 2.18 | 95 | 1012.4 |
| 20260508001548 | 11 | 0 | 0.0 | 1.6 | 0.00 | 2.31 | 2.18 | 95 | 1012.2 |
| 20260508000047 | 12 | 0 | 0.0 | 1.6 | 0.00 | 2.31 | 2.18 | 95 | 1011.9 |
| 20260507234544 | 12 | 0 | 0.0 | 4.8 | 0.00 | 2.31 | 2.18 | 95 | 1011.9 |
| 20260507233043 | 12 | 0 | 0.0 | 1.6 | 0.00 | 2.31 | 2.18 | 95 | 1011.5 |
| 20260507231546 | 12 | 0 | 0.0 | 3.2 | 0.00 | 2.31 | 2.18 | 95 | 1011.4 |
| 20260507230037 | 12 | 0 | 0.0 | 4.8 | 0.00 | 2.31 | 2.18 | 95 | 1011.6 |
| 20260507224557 | 12 | 0 | 0.0 | 3.2 | 0.00 | 2.31 | 2.18 | 95 | 1011.2 |
| 20260507223046 | 12 | 0 | 0.0 | 4.8 | 0.00 | 2.31 | 2.18 | 95 | 1011.1 |
| 20260507221539 | 12 | 0 | 0.0 | 4.8 | 0.00 | 2.31 | 2.18 | 95 | 1011.0 |
| 20260507220049 | 12 | 0 | 0.0 | 3.2 | 0.00 | 2.31 | 2.18 | 96 | 1010.9 |
| 20260507214545 | 12 | 207 | 0.0 | 1.6 | 0.03 | 2.31 | 2.18 | 96 | 1011.4 |
| 20260507213102 | 12 | 0 | 0.0 | 4.8 | 0.03 | 2.31 | 2.18 | 96 | 1011.4 |
| 20260507211543 | 12 | 149 | 0.0 | 3.2 | 0.03 | 2.31 | 2.18 | 95 | 1011.0 |
| 20260507210046 | 12 | 349 | 1.6 | 6.4 | 0.03 | 2.31 | 2.18 | 96 | 1011.3 |
| 20260507204548 | 12 | 267 | 0.0 | 4.8 | 0.00 | 2.29 | 2.16 | 95 | 1010.7 |
| 20260507203035 | 12 | 238 | 1.6 | 4.8 | 0.00 | 2.29 | 2.16 | 96 | 1010.9 |
| 20260507201544 | 12 | 0 | 0.0 | 3.2 | 0.00 | 2.29 | 2.16 | 96 | 1010.8 |
| 20260507200042 | 12 | 265 | 1.6 | 9.7 | 0.00 | 2.29 | 2.16 | 95 | 1011.1 |
| 20260507194547 | 12 | 228 | 1.6 | 9.7 | 0.03 | 2.29 | 2.16 | 95 | 1010.9 |
| 20260507193047 | 12 | 257 | 1.6 | 4.8 | 0.03 | 2.29 | 2.16 | 96 | 1010.9 |
| 20260507191544 | 12 | 281 | 3.2 | 11.3 | 0.05 | 2.29 | 2.16 | 95 | 1011.0 |
| 20260507190044 | 12 | 292 | 0.0 | 4.8 | 0.08 | 2.29 | 2.16 | 96 | 1010.9 |
| 20260507184540 | 12 | 255 | 1.6 | 9.7 | 0.05 | 2.26 | 2.13 | 96 | 1011.0 |
| 20260507183049 | 12 | 275 | 0.0 | 6.4 | 0.05 | 2.26 | 2.13 | 96 | 1010.8 |
| 20260507181546 | 12 | 300 | 1.6 | 11.3 | 0.03 | 2.24 | 2.11 | 95 | 1010.7 |
| 20260507180050 | 12 | 246 | 1.6 | 8.0 | 0.00 | 2.21 | 2.08 | 95 | 1010.9 |
| 20260507174551 | 12 | 267 | 1.6 | 9.7 | 0.03 | 2.21 | 2.08 | 95 | 1010.8 |
| 20260507173054 | 12 | 123 | 3.2 | 12.9 | 0.03 | 2.21 | 2.08 | 95 | 1011.2 |
| 20260507171555 | 12 | 0 | 1.6 | 12.9 | 0.05 | 2.21 | 2.08 | 95 | 1010.5 |
| 20260507170050 | 12 | 290 | 3.2 | 16.1 | 0.05 | 2.21 | 2.08 | 95 | 1010.2 |
| 20260507164546 | 12 | 173 | 3.2 | 12.9 | 0.05 | 2.18 | 2.06 | 95 | 1010.6 |
| 20260507163045 | 13 | 159 | 1.6 | 9.7 | 0.08 | 2.18 | 2.06 | 95 | 1010.4 |
| 20260507161548 | 13 | 261 | 1.6 | 6.4 | 0.08 | 2.16 | 2.03 | 94 | 1010.8 |
| 20260507160058 | 15 | 209 | 1.6 | 16.1 | 0.10 | 2.16 | 2.03 | 94 | 1010.9 |
| 20260507154547 | 17 | 0 | 1.6 | 6.4 | 0.10 | 2.13 | 2.01 | 96 | 1010.4 |
| 20260507153051 | 17 | 0 | 1.6 | 6.4 | 0.10 | 2.11 | 1.98 | 96 | 1010.8 |
| 20260507151545 | 18 | 0 | 0.0 | 3.2 | 0.13 | 2.08 | 1.96 | 97 | 1010.1 |
| 20260507150044 | 17 | 292 | 0.0 | 3.2 | 0.13 | 2.06 | 1.93 | 97 | 1010.6 |
| 20260507144550 | 17 | 0 | 0.0 | 3.2 | 0.18 | 2.03 | 1.91 | 96 | 1010.2 |
| 20260507143047 | 18 | 0 | 0.0 | 3.2 | 0.28 | 2.01 | 1.88 | 97 | 1010.1 |
| 20260507141552 | 18 | 252 | 0.0 | 1.6 | 0.41 | 1.96 | 1.83 | 97 | 1009.9 |
| 20260507140104 | 18 | 0 | 0.0 | 1.6 | 0.53 | 1.93 | 1.80 | 97 | 1010.2 |
| 20260507134541 | 18 | 0 | 0.0 | 3.2 | 0.58 | 1.85 | 1.73 | 97 | 1010.8 |
| 20260507133048 | 17 | 0 | 1.6 | 4.8 | 0.48 | 1.73 | 1.60 | 97 | 1011.2 |
| 20260507131554 | 17 | 0 | 0.0 | 1.6 | 0.33 | 1.55 | 1.42 | 97 | 1011.4 |
| 20260507130052 | 17 | 139 | 0.0 | 1.6 | 0.18 | 1.40 | 1.27 | 97 | 1011.1 |
| 20260507124552 | 17 | 0 | 0.0 | 0.0 | 0.05 | 1.27 | 1.14 | 97 | 1010.8 |
| 20260507123058 | 17 | 0 | 0.0 | 0.0 | 0.03 | 1.24 | 1.12 | 97 | 1011.0 |
| 20260507121550 | 17 | 0 | 0.0 | 0.0 | 0.05 | 1.22 | 1.09 | 97 | 1010.9 |
| 20260507120047 | 17 | 0 | 0.0 | 0.0 | 0.08 | 1.22 | 1.09 | 97 | 1010.8 |
| 20260507114548 | 17 | 0 | 0.0 | 0.0 | 0.08 | 1.22 | 1.09 | 96 | 1010.8 |
| 20260507113043 | 17 | 0 | 0.0 | 0.0 | 0.08 | 1.22 | 1.09 | 96 | 1010.9 |
| 20260507111549 | 17 | 0 | 0.0 | 0.0 | 0.03 | 1.17 | 1.04 | 96 | 1011.1 |
| 20260507110042 | 17 | 0 | 0.0 | 1.6 | 0.00 | 1.14 | 1.02 | 96 | 1010.9 |
| 20260507104547 | 17 | 0 | 0.0 | 3.2 | 0.03 | 1.14 | 1.02 | 96 | 1011.1 |
| 20260507103046 | 17 | 0 | 0.0 | 1.6 | 0.03 | 1.14 | 1.02 | 96 | 1010.7 |
| 20260507101551 | 17 | 0 | 0.0 | 1.6 | 0.03 | 1.14 | 1.02 | 96 | 1010.8 |
| 20260507100043 | 17 | 0 | 0.0 | 3.2 | 0.03 | 1.14 | 1.02 | 96 | 1010.7 |
| 20260507094553 | 17 | 0 | 0.0 | 1.6 | 0.03 | 1.12 | 0.99 | 96 | 1010.8 |
| 20260507093047 | 17 | 0 | 0.0 | 1.6 | 0.05 | 1.12 | 0.99 | 96 | 1010.8 |
| 20260507091545 | 17 | 0 | 0.0 | 1.6 | 0.08 | 1.12 | 0.99 | 96 | 1010.6 |
| 20260507090044 | 17 | 0 | 0.0 | 1.6 | 0.08 | 1.12 | 0.99 | 96 | 1010.4 |
| 20260507084553 | 17 | 0 | 0.0 | 1.6 | 0.13 | 1.09 | 0.97 | 96 | 1011.1 |
| 20260507083047 | 17 | 0 | 0.0 | 1.6 | 0.13 | 1.07 | 0.94 | 96 | 1011.1 |
| 20260507081547 | 17 | 0 | 0.0 | 1.6 | 0.13 | 1.04 | 0.91 | 95 | 1011.3 |
| 20260507080116 | 17 | 0 | 0.0 | 3.2 | 0.13 | 1.04 | 0.91 | 95 | 1011.1 |
| 20260507074546 | 17 | 0 | 0.0 | 1.6 | 0.05 | 0.97 | 0.84 | 96 | 1011.2 |
| 20260507073047 | 17 | 0 | 0.0 | 1.6 | 0.08 | 0.94 | 0.81 | 95 | 1011.4 |
| 20260507071557 | 17 | 0 | 0.0 | 3.2 | 0.33 | 0.91 | 0.79 | 95 | 1011.3 |
| 20260507070039 | 17 | 0 | 0.0 | 3.2 | 0.46 | 0.91 | 0.79 | 95 | 1011.1 |
| 20260507064551 | 17 | 151 | 0.0 | 6.4 | 0.58 | 0.91 | 0.79 | 95 | 1011.5 |
| 20260507063046 | 17 | 0 | 0.0 | 4.8 | 0.64 | 0.86 | 0.74 | 95 | 1012.3 |
| 20260507061541 | 17 | 0 | 0.0 | 3.2 | 0.36 | 0.58 | 0.46 | 95 | 1012.9 |
| 20260507060040 | 17 | 0 | 0.0 | 1.6 | 0.20 | 0.43 | 0.30 | 95 | 1012.3 |
| 20260507054541 | 18 | 0 | 0.0 | 1.6 | 0.10 | 0.33 | 0.20 | 95 | 1012.3 |
| 20260507053048 | 18 | 0 | 0.0 | 3.2 | 0.03 | 0.23 | 0.10 | 94 | 1012.5 |
| 20260507051545 | 18 | 0 | 0.0 | 1.6 | 0.03 | 0.23 | 0.10 | 94 | 1012.7 |
| 20260507050044 | 18 | 0 | 0.0 | 1.6 | 0.10 | 0.23 | 0.10 | 94 | 1013.0 |
| 20260507044546 | 18 | 0 | 1.6 | 4.8 | 0.15 | 0.23 | 0.10 | 94 | 1012.5 |
| 20260507043047 | 18 | 121 | 0.0 | 4.8 | 0.15 | 0.20 | 0.08 | 94 | 1013.2 |
| 20260507041546 | 18 | 323 | 0.0 | 4.8 | 0.18 | 0.20 | 0.08 | 94 | 1012.5 |
| 20260507040058 | 18 | 40 | 1.6 | 6.4 | 0.10 | 0.13 | 0.00 | 93 | 1014.2 |
| 20260507034549 | 18 | 66 | 0.0 | 6.4 | 0.05 | 0.08 | 0.08 | 94 | 1014.2 |
| 20260507033043 | 18 | 0 | 0.0 | 3.2 | 0.05 | 0.05 | 0.05 | 94 | 1013.2 |
| 20260507031545 | 18 | 0 | 0.0 | 1.6 | 0.03 | 0.03 | 0.03 | 94 | 1013.0 |